sensor_id;sensor_type;location;lat;lon;timestamp;temperature;humidity
74901;DHT22;63461;51.416;6.758;2023-03-20T00:00:50;10.60;99.90
74901;DHT22;63461;51.416;6.758;2023-03-20T00:03:17;10.70;99.90
74901;DHT22;63461;51.416;6.758;2023-03-20T00:05:43;10.60;99.90
74901;DHT22;63461;51.416;6.758;2023-03-20T00:08:08;10.60;99.90
74901;DHT22;63461;51.416;6.758;2023-03-20T00:10:37;10.50;99.90
74901;DHT22;63461;51.416;6.758;2023-03-20T00:13:05;10.60;99.90
74901;DHT22;63461;51.416;6.758;2023-03-20T00:15:41;10.60;99.90
74901;DHT22;63461;51.416;6.758;2023-03-20T00:18:21;10.40;99.90
74901;DHT22;63461;51.416;6.758;2023-03-20T00:20:49;10.40;99.90
74901;DHT22;63461;51.416;6.758;2023-03-20T00:23:16;10.50;99.90
74901;DHT22;63461;51.416;6.758;2023-03-20T00:25:43;10.50;99.90
74901;DHT22;63461;51.416;6.758;2023-03-20T00:28:43;10.50;99.90
74901;DHT22;63461;51.416;6.758;2023-03-20T00:31:26;10.50;99.90
74901;DHT22;63461;51.416;6.758;2023-03-20T00:33:53;10.40;99.90
74901;DHT22;63461;51.416;6.758;2023-03-20T00:36:21;10.50;99.90
74901;DHT22;63461;51.416;6.758;2023-03-20T00:38:46;10.30;99.90
74901;DHT22;63461;51.416;6.758;2023-03-20T00:44:46;10.30;99.90
74901;DHT22;63461;51.416;6.758;2023-03-20T00:46:52;10.30;99.90
74901;DHT22;63461;51.416;6.758;2023-03-20T00:49:27;10.40;99.90
74901;DHT22;63461;51.416;6.758;2023-03-20T00:51:54;10.30;99.90
74901;DHT22;63461;51.416;6.758;2023-03-20T00:54:20;10.20;99.90
74901;DHT22;63461;51.416;6.758;2023-03-20T00:56:56;10.30;99.90
74901;DHT22;63461;51.416;6.758;2023-03-20T00:59:32;10.20;99.90
74901;DHT22;63461;51.416;6.758;2023-03-20T01:02:01;10.20;99.90
74901;DHT22;63461;51.416;6.758;2023-03-20T01:04:34;10.30;99.90
74901;DHT22;63461;51.416;6.758;2023-03-20T01:07:01;10.30;99.90
74901;DHT22;63461;51.416;6.758;2023-03-20T01:09:29;10.20;99.90
74901;DHT22;63461;51.416;6.758;2023-03-20T01:11:59;10.20;99.90
74901;DHT22;63461;51.416;6.758;2023-03-20T01:14:25;10.10;99.90
74901;DHT22;63461;51.416;6.758;2023-03-20T01:16:51;10.30;99.90
74901;DHT22;63461;51.416;6.758;2023-03-20T01:19:17;10.20;99.90
74901;DHT22;63461;51.416;6.758;2023-03-20T01:21:43;10.30;99.90
74901;DHT22;63461;51.416;6.758;2023-03-20T01:24:09;10.40;99.90
74901;DHT22;63461;51.416;6.758;2023-03-20T01:26:44;10.20;99.90
74901;DHT22;63461;51.416;6.758;2023-03-20T01:31:42;10.20;99.90
74901;DHT22;63461;51.416;6.758;2023-03-20T01:34:09;10.30;99.90
74901;DHT22;63461;51.416;6.758;2023-03-20T01:36:37;10.20;99.90
74901;DHT22;63461;51.416;6.758;2023-03-20T01:39:05;10.20;99.90
74901;DHT22;63461;51.416;6.758;2023-03-20T01:41:31;10.20;99.90
74901;DHT22;63461;51.416;6.758;2023-03-20T01:43:57;10.20;99.90
74901;DHT22;63461;51.416;6.758;2023-03-20T01:46:29;10.10;99.90
74901;DHT22;63461;51.416;6.758;2023-03-20T01:51:56;10.20;99.90
74901;DHT22;63461;51.416;6.758;2023-03-20T01:54:36;10.10;99.90
74901;DHT22;63461;51.416;6.758;2023-03-20T01:57:20;10.10;99.90
74901;DHT22;63461;51.416;6.758;2023-03-20T01:59:53;10.10;99.90
74901;DHT22;63461;51.416;6.758;2023-03-20T02:02:24;10.10;99.90
74901;DHT22;63461;51.416;6.758;2023-03-20T02:04:55;10.10;99.90
74901;DHT22;63461;51.416;6.758;2023-03-20T02:07:23;10.20;99.90
74901;DHT22;63461;51.416;6.758;2023-03-20T02:10:26;10.10;99.90
74901;DHT22;63461;51.416;6.758;2023-03-20T02:13:05;10.20;99.90
74901;DHT22;63461;51.416;6.758;2023-03-20T02:16:11;10.10;99.90
74901;DHT22;63461;51.416;6.758;2023-03-20T02:19:25;10.00;99.90
74901;DHT22;63461;51.416;6.758;2023-03-20T02:25:09;10.00;99.90
74901;DHT22;63461;51.416;6.758;2023-03-20T02:28:06;9.90;99.90
74901;DHT22;63461;51.416;6.758;2023-03-20T02:41:56;10.10;99.90
74901;DHT22;63461;51.416;6.758;2023-03-20T02:47:07;10.00;99.90
74901;DHT22;63461;51.416;6.758;2023-03-20T02:53:56;10.10;99.90
74901;DHT22;63461;51.416;6.758;2023-03-20T02:58:38;10.10;99.90
74901;DHT22;63461;51.416;6.758;2023-03-20T03:01:16;10.00;99.90
74901;DHT22;63461;51.416;6.758;2023-03-20T03:04:10;10.00;99.90
74901;DHT22;63461;51.416;6.758;2023-03-20T03:06:41;9.90;99.90
74901;DHT22;63461;51.416;6.758;2023-03-20T03:09:27;10.00;99.90
74901;DHT22;63461;51.416;6.758;2023-03-20T03:12:00;9.90;99.90
74901;DHT22;63461;51.416;6.758;2023-03-20T03:14:36;10.00;99.90
74901;DHT22;63461;51.416;6.758;2023-03-20T03:17:09;10.00;99.90
74901;DHT22;63461;51.416;6.758;2023-03-20T03:19:38;10.00;99.90
74901;DHT22;63461;51.416;6.758;2023-03-20T03:22:06;10.00;99.90
74901;DHT22;63461;51.416;6.758;2023-03-20T03:24:38;10.00;99.90
74901;DHT22;63461;51.416;6.758;2023-03-20T03:27:41;9.90;99.90
74901;DHT22;63461;51.416;6.758;2023-03-20T03:32:46;10.00;99.90
74901;DHT22;63461;51.416;6.758;2023-03-20T03:35:16;10.00;99.90
74901;DHT22;63461;51.416;6.758;2023-03-20T03:37:57;10.00;99.90
74901;DHT22;63461;51.416;6.758;2023-03-20T03:43:16;9.80;99.90
74901;DHT22;63461;51.416;6.758;2023-03-20T03:46:09;9.90;99.90
74901;DHT22;63461;51.416;6.758;2023-03-20T03:48:49;9.80;99.90
74901;DHT22;63461;51.416;6.758;2023-03-20T03:51:20;9.80;99.90
74901;DHT22;63461;51.416;6.758;2023-03-20T03:54:12;9.80;99.90
74901;DHT22;63461;51.416;6.758;2023-03-20T03:56:41;9.60;99.90
74901;DHT22;63461;51.416;6.758;2023-03-20T03:59:12;9.70;99.90
74901;DHT22;63461;51.416;6.758;2023-03-20T04:01:43;9.70;99.90
74901;DHT22;63461;51.416;6.758;2023-03-20T04:04:14;9.80;99.90
74901;DHT22;63461;51.416;6.758;2023-03-20T04:06:40;9.80;99.90
74901;DHT22;63461;51.416;6.758;2023-03-20T04:09:10;9.80;99.90
74901;DHT22;63461;51.416;6.758;2023-03-20T04:11:39;9.70;99.90
74901;DHT22;63461;51.416;6.758;2023-03-20T04:14:10;9.80;99.90
74901;DHT22;63461;51.416;6.758;2023-03-20T04:16:36;9.80;99.90
74901;DHT22;63461;51.416;6.758;2023-03-20T04:19:04;9.80;99.90
74901;DHT22;63461;51.416;6.758;2023-03-20T04:21:30;9.80;99.90
74901;DHT22;63461;51.416;6.758;2023-03-20T04:23:56;9.60;99.90
74901;DHT22;63461;51.416;6.758;2023-03-20T04:26:22;9.60;99.90
74901;DHT22;63461;51.416;6.758;2023-03-20T04:28:50;9.60;99.90
74901;DHT22;63461;51.416;6.758;2023-03-20T04:31:16;9.40;99.90
74901;DHT22;63461;51.416;6.758;2023-03-20T04:33:54;9.50;99.90
74901;DHT22;63461;51.416;6.758;2023-03-20T04:36:57;9.50;99.90
74901;DHT22;63461;51.416;6.758;2023-03-20T04:39:37;9.40;99.90
74901;DHT22;63461;51.416;6.758;2023-03-20T04:42:04;9.50;99.90
74901;DHT22;63461;51.416;6.758;2023-03-20T04:44:31;9.40;99.90
74901;DHT22;63461;51.416;6.758;2023-03-20T04:46:57;9.40;99.90
74901;DHT22;63461;51.416;6.758;2023-03-20T04:49:23;9.40;99.90
74901;DHT22;63461;51.416;6.758;2023-03-20T04:51:49;9.40;99.90
74901;DHT22;63461;51.416;6.758;2023-03-20T04:54:21;9.40;99.90
74901;DHT22;63461;51.416;6.758;2023-03-20T04:56:46;9.50;99.90
74901;DHT22;63461;51.416;6.758;2023-03-20T04:59:15;9.40;99.90
74901;DHT22;63461;51.416;6.758;2023-03-20T05:01:41;9.40;99.90
74901;DHT22;63461;51.416;6.758;2023-03-20T05:04:07;9.40;99.90
74901;DHT22;63461;51.416;6.758;2023-03-20T05:06:34;9.30;99.90
74901;DHT22;63461;51.416;6.758;2023-03-20T05:09:00;9.30;99.90
74901;DHT22;63461;51.416;6.758;2023-03-20T05:11:29;9.30;99.90
74901;DHT22;63461;51.416;6.758;2023-03-20T05:13:58;9.30;99.90
74901;DHT22;63461;51.416;6.758;2023-03-20T05:16:42;9.20;99.90
74901;DHT22;63461;51.416;6.758;2023-03-20T05:19:17;9.20;99.90
74901;DHT22;63461;51.416;6.758;2023-03-20T05:21:46;9.20;99.90
74901;DHT22;63461;51.416;6.758;2023-03-20T05:24:51;9.20;99.90
74901;DHT22;63461;51.416;6.758;2023-03-20T05:27:17;9.20;99.90
74901;DHT22;63461;51.416;6.758;2023-03-20T05:30:12;9.20;99.90
74901;DHT22;63461;51.416;6.758;2023-03-20T05:33:10;9.10;99.90
74901;DHT22;63461;51.416;6.758;2023-03-20T05:35:50;9.10;99.90
74901;DHT22;63461;51.416;6.758;2023-03-20T05:38:42;9.10;99.90
74901;DHT22;63461;51.416;6.758;2023-03-20T05:41:18;9.20;99.90
74901;DHT22;63461;51.416;6.758;2023-03-20T05:44:05;9.10;99.90
74901;DHT22;63461;51.416;6.758;2023-03-20T05:46:51;9.10;99.90
74901;DHT22;63461;51.416;6.758;2023-03-20T05:49:28;9.10;99.90
74901;DHT22;63461;51.416;6.758;2023-03-20T05:52:18;9.00;99.90
74901;DHT22;63461;51.416;6.758;2023-03-20T05:55:16;9.00;99.90
74901;DHT22;63461;51.416;6.758;2023-03-20T05:57:52;9.00;99.90
74901;DHT22;63461;51.416;6.758;2023-03-20T06:00:27;9.00;99.90
74901;DHT22;63461;51.416;6.758;2023-03-20T06:03:16;9.00;99.90
74901;DHT22;63461;51.416;6.758;2023-03-20T06:05:58;9.00;99.90
74901;DHT22;63461;51.416;6.758;2023-03-20T06:08:24;9.10;99.90
74901;DHT22;63461;51.416;6.758;2023-03-20T06:10:57;9.00;99.90
74901;DHT22;63461;51.416;6.758;2023-03-20T06:13:27;9.00;99.90
74901;DHT22;63461;51.416;6.758;2023-03-20T06:15:53;8.90;99.90
74901;DHT22;63461;51.416;6.758;2023-03-20T06:18:18;8.90;99.90
74901;DHT22;63461;51.416;6.758;2023-03-20T06:20:44;9.00;99.90
74901;DHT22;63461;51.416;6.758;2023-03-20T06:23:10;8.90;99.90
74901;DHT22;63461;51.416;6.758;2023-03-20T06:25:36;8.90;99.90
74901;DHT22;63461;51.416;6.758;2023-03-20T06:28:03;8.90;99.90
74901;DHT22;63461;51.416;6.758;2023-03-20T06:30:29;9.00;99.90
74901;DHT22;63461;51.416;6.758;2023-03-20T06:32:55;9.00;99.90
74901;DHT22;63461;51.416;6.758;2023-03-20T06:35:27;8.90;99.90
74901;DHT22;63461;51.416;6.758;2023-03-20T06:37:56;9.00;99.90
74901;DHT22;63461;51.416;6.758;2023-03-20T06:40:25;9.00;99.90
74901;DHT22;63461;51.416;6.758;2023-03-20T06:42:54;9.10;99.90
74901;DHT22;63461;51.416;6.758;2023-03-20T06:45:22;9.00;99.90
74901;DHT22;63461;51.416;6.758;2023-03-20T06:47:54;8.90;99.90
74901;DHT22;63461;51.416;6.758;2023-03-20T06:50:25;9.00;99.90
74901;DHT22;63461;51.416;6.758;2023-03-20T06:52:56;9.20;99.90
74901;DHT22;63461;51.416;6.758;2023-03-20T06:55:56;9.10;99.90
74901;DHT22;63461;51.416;6.758;2023-03-20T06:58:23;9.10;99.90
74901;DHT22;63461;51.416;6.758;2023-03-20T07:00:52;9.20;99.90
74901;DHT22;63461;51.416;6.758;2023-03-20T07:03:19;9.20;99.90
74901;DHT22;63461;51.416;6.758;2023-03-20T07:05:47;9.20;99.90
74901;DHT22;63461;51.416;6.758;2023-03-20T07:08:17;9.30;99.90
74901;DHT22;63461;51.416;6.758;2023-03-20T07:10:46;9.30;99.90
74901;DHT22;63461;51.416;6.758;2023-03-20T07:13:15;9.30;99.90
74901;DHT22;63461;51.416;6.758;2023-03-20T07:15:47;9.20;99.90
74901;DHT22;63461;51.416;6.758;2023-03-20T07:18:45;9.30;99.90
74901;DHT22;63461;51.416;6.758;2023-03-20T07:21:16;9.30;99.90
74901;DHT22;63461;51.416;6.758;2023-03-20T07:23:49;9.30;99.90
74901;DHT22;63461;51.416;6.758;2023-03-20T07:26:20;9.30;99.90
74901;DHT22;63461;51.416;6.758;2023-03-20T07:28:46;9.50;99.90
74901;DHT22;63461;51.416;6.758;2023-03-20T07:31:25;9.40;99.90
74901;DHT22;63461;51.416;6.758;2023-03-20T07:34:14;9.50;99.90
74901;DHT22;63461;51.416;6.758;2023-03-20T07:36:47;9.50;99.90
74901;DHT22;63461;51.416;6.758;2023-03-20T07:39:20;9.60;99.90
74901;DHT22;63461;51.416;6.758;2023-03-20T07:41:59;9.50;99.90
74901;DHT22;63461;51.416;6.758;2023-03-20T07:44:39;9.60;99.90
74901;DHT22;63461;51.416;6.758;2023-03-20T07:47:13;9.50;99.90
74901;DHT22;63461;51.416;6.758;2023-03-20T07:49:46;9.60;99.90
74901;DHT22;63461;51.416;6.758;2023-03-20T07:52:12;9.60;99.90
74901;DHT22;63461;51.416;6.758;2023-03-20T07:54:49;9.70;99.90
74901;DHT22;63461;51.416;6.758;2023-03-20T07:57:17;9.90;99.90
74901;DHT22;63461;51.416;6.758;2023-03-20T07:59:46;9.90;99.90
74901;DHT22;63461;51.416;6.758;2023-03-20T08:02:14;10.00;99.90
74901;DHT22;63461;51.416;6.758;2023-03-20T08:04:44;10.00;99.90
74901;DHT22;63461;51.416;6.758;2023-03-20T08:07:16;10.00;99.90
74901;DHT22;63461;51.416;6.758;2023-03-20T08:09:47;10.00;99.90
74901;DHT22;63461;51.416;6.758;2023-03-20T08:12:15;9.90;99.90
74901;DHT22;63461;51.416;6.758;2023-03-20T08:14:42;9.90;99.90
74901;DHT22;63461;51.416;6.758;2023-03-20T08:17:09;10.00;99.90
74901;DHT22;63461;51.416;6.758;2023-03-20T08:19:37;10.10;99.90
74901;DHT22;63461;51.416;6.758;2023-03-20T08:22:03;10.20;99.90
74901;DHT22;63461;51.416;6.758;2023-03-20T08:24:31;10.30;99.90
74901;DHT22;63461;51.416;6.758;2023-03-20T08:26:59;10.30;99.90
74901;DHT22;63461;51.416;6.758;2023-03-20T08:29:28;10.30;99.90
74901;DHT22;63461;51.416;6.758;2023-03-20T08:31:54;10.20;99.90
74901;DHT22;63461;51.416;6.758;2023-03-20T08:34:28;10.30;99.90
74901;DHT22;63461;51.416;6.758;2023-03-20T08:36:55;10.30;99.90
74901;DHT22;63461;51.416;6.758;2023-03-20T08:39:21;10.30;99.90
74901;DHT22;63461;51.416;6.758;2023-03-20T08:41:47;10.30;99.90
74901;DHT22;63461;51.416;6.758;2023-03-20T08:44:18;10.30;99.90
74901;DHT22;63461;51.416;6.758;2023-03-20T08:46:44;10.50;99.90
74901;DHT22;63461;51.416;6.758;2023-03-20T08:49:17;10.50;99.90
74901;DHT22;63461;51.416;6.758;2023-03-20T08:51:47;10.50;99.90
74901;DHT22;63461;51.416;6.758;2023-03-20T08:54:19;10.40;99.90
74901;DHT22;63461;51.416;6.758;2023-03-20T08:56:45;10.40;99.90
74901;DHT22;63461;51.416;6.758;2023-03-20T08:59:13;10.30;99.90
74901;DHT22;63461;51.416;6.758;2023-03-20T09:01:52;10.30;99.90
74901;DHT22;63461;51.416;6.758;2023-03-20T09:04:18;10.30;99.90
74901;DHT22;63461;51.416;6.758;2023-03-20T09:06:44;10.40;99.90
74901;DHT22;63461;51.416;6.758;2023-03-20T09:09:17;10.60;99.90
74901;DHT22;63461;51.416;6.758;2023-03-20T09:11:46;10.70;99.90
74901;DHT22;63461;51.416;6.758;2023-03-20T09:14:12;10.70;99.90
74901;DHT22;63461;51.416;6.758;2023-03-20T09:16:42;10.60;99.90
74901;DHT22;63461;51.416;6.758;2023-03-20T09:19:13;10.50;99.90
74901;DHT22;63461;51.416;6.758;2023-03-20T09:21:47;10.50;99.90
74901;DHT22;63461;51.416;6.758;2023-03-20T09:24:13;10.60;99.90
74901;DHT22;63461;51.416;6.758;2023-03-20T09:26:40;10.60;99.90
74901;DHT22;63461;51.416;6.758;2023-03-20T09:29:09;10.50;99.90
74901;DHT22;63461;51.416;6.758;2023-03-20T09:31:35;10.40;99.90
74901;DHT22;63461;51.416;6.758;2023-03-20T09:34:01;10.40;99.90
74901;DHT22;63461;51.416;6.758;2023-03-20T09:36:27;10.50;99.90
74901;DHT22;63461;51.416;6.758;2023-03-20T09:38:55;10.60;99.90
74901;DHT22;63461;51.416;6.758;2023-03-20T09:41:30;10.60;99.90
74901;DHT22;63461;51.416;6.758;2023-03-20T09:47:01;10.60;99.90
74901;DHT22;63461;51.416;6.758;2023-03-20T09:49:47;10.70;99.90
74901;DHT22;63461;51.416;6.758;2023-03-20T09:52:30;10.80;99.90
74901;DHT22;63461;51.416;6.758;2023-03-20T09:58:02;10.80;99.90
74901;DHT22;63461;51.416;6.758;2023-03-20T10:00:30;10.80;99.90
74901;DHT22;63461;51.416;6.758;2023-03-20T10:03:21;10.80;99.90
74901;DHT22;63461;51.416;6.758;2023-03-20T10:06:11;10.90;99.90
74901;DHT22;63461;51.416;6.758;2023-03-20T10:08:38;10.90;99.90
74901;DHT22;63461;51.416;6.758;2023-03-20T10:22:30;10.90;99.90
74901;DHT22;63461;51.416;6.758;2023-03-20T10:33:41;10.90;99.90
74901;DHT22;63461;51.416;6.758;2023-03-20T10:36:45;11.00;99.90
74901;DHT22;63461;51.416;6.758;2023-03-20T10:42:30;10.90;99.90
74901;DHT22;63461;51.416;6.758;2023-03-20T10:45:10;11.00;99.90
74901;DHT22;63461;51.416;6.758;2023-03-20T10:47:46;11.10;99.90
74901;DHT22;63461;51.416;6.758;2023-03-20T10:50:18;10.90;99.90
74901;DHT22;63461;51.416;6.758;2023-03-20T10:52:58;11.00;99.90
74901;DHT22;63461;51.416;6.758;2023-03-20T10:55:39;10.90;99.90
74901;DHT22;63461;51.416;6.758;2023-03-20T10:58:24;11.10;99.90
74901;DHT22;63461;51.416;6.758;2023-03-20T11:00:56;10.90;99.90
74901;DHT22;63461;51.416;6.758;2023-03-20T11:03:32;10.90;99.90
74901;DHT22;63461;51.416;6.758;2023-03-20T11:06:11;10.90;99.90
74901;DHT22;63461;51.416;6.758;2023-03-20T11:08:51;10.90;99.90
74901;DHT22;63461;51.416;6.758;2023-03-20T11:11:29;10.90;99.90
74901;DHT22;63461;51.416;6.758;2023-03-20T11:14:09;11.00;99.90
74901;DHT22;63461;51.416;6.758;2023-03-20T11:16:40;11.20;99.90
74901;DHT22;63461;51.416;6.758;2023-03-20T11:19:09;11.20;99.90
74901;DHT22;63461;51.416;6.758;2023-03-20T11:21:45;11.30;99.90
74901;DHT22;63461;51.416;6.758;2023-03-20T11:24:32;11.20;99.90
74901;DHT22;63461;51.416;6.758;2023-03-20T11:27:32;11.30;99.90
74901;DHT22;63461;51.416;6.758;2023-03-20T11:30:04;11.30;99.90
74901;DHT22;63461;51.416;6.758;2023-03-20T11:32:34;11.40;99.90
74901;DHT22;63461;51.416;6.758;2023-03-20T11:37:54;11.50;99.90
74901;DHT22;63461;51.416;6.758;2023-03-20T11:40:25;11.40;99.90
74901;DHT22;63461;51.416;6.758;2023-03-20T11:43:02;11.30;99.90
74901;DHT22;63461;51.416;6.758;2023-03-20T11:45:37;11.30;99.90
74901;DHT22;63461;51.416;6.758;2023-03-20T11:48:04;11.30;99.90
74901;DHT22;63461;51.416;6.758;2023-03-20T11:50:36;11.00;99.90
74901;DHT22;63461;51.416;6.758;2023-03-20T11:56:03;11.10;99.90
74901;DHT22;63461;51.416;6.758;2023-03-20T11:58:31;11.10;99.90
74901;DHT22;63461;51.416;6.758;2023-03-20T12:00:58;11.10;99.90
74901;DHT22;63461;51.416;6.758;2023-03-20T12:06:18;11.00;99.90
74901;DHT22;63461;51.416;6.758;2023-03-20T12:08:55;10.90;99.90
74901;DHT22;63461;51.416;6.758;2023-03-20T12:11:46;10.90;99.90
74901;DHT22;63461;51.416;6.758;2023-03-20T12:14:21;10.90;99.90
74901;DHT22;63461;51.416;6.758;2023-03-20T12:16:52;11.00;99.90
74901;DHT22;63461;51.416;6.758;2023-03-20T12:19:26;10.80;99.90
74901;DHT22;63461;51.416;6.758;2023-03-20T12:22:16;10.80;99.90
74901;DHT22;63461;51.416;6.758;2023-03-20T12:25:00;11.00;99.90
74901;DHT22;63461;51.416;6.758;2023-03-20T12:27:35;11.10;99.90
74901;DHT22;63461;51.416;6.758;2023-03-20T12:30:13;11.10;99.90
74901;DHT22;63461;51.416;6.758;2023-03-20T12:32:55;11.20;99.90
74901;DHT22;63461;51.416;6.758;2023-03-20T12:35:32;11.40;99.90
74901;DHT22;63461;51.416;6.758;2023-03-20T12:37:59;11.40;99.90
74901;DHT22;63461;51.416;6.758;2023-03-20T12:40:41;11.40;99.90
74901;DHT22;63461;51.416;6.758;2023-03-20T12:43:33;11.40;99.90
74901;DHT22;63461;51.416;6.758;2023-03-20T12:46:16;11.40;99.90
74901;DHT22;63461;51.416;6.758;2023-03-20T12:48:55;11.40;99.90
74901;DHT22;63461;51.416;6.758;2023-03-20T12:53:56;11.10;99.90
74901;DHT22;63461;51.416;6.758;2023-03-20T13:01:32;11.30;99.90
74901;DHT22;63461;51.416;6.758;2023-03-20T13:07:02;11.40;99.90
74901;DHT22;63461;51.416;6.758;2023-03-20T13:12:36;11.20;99.90
74901;DHT22;63461;51.416;6.758;2023-03-20T13:18:20;11.40;99.90
74901;DHT22;63461;51.416;6.758;2023-03-20T13:20:51;11.20;99.90
74901;DHT22;63461;51.416;6.758;2023-03-20T13:23:29;11.40;99.90
74901;DHT22;63461;51.416;6.758;2023-03-20T13:26:32;11.50;99.90
74901;DHT22;63461;51.416;6.758;2023-03-20T13:32:14;11.60;99.90
74901;DHT22;63461;51.416;6.758;2023-03-20T13:35:04;11.50;99.90
74901;DHT22;63461;51.416;6.758;2023-03-20T13:37:34;11.50;99.90
74901;DHT22;63461;51.416;6.758;2023-03-20T13:40:23;11.60;99.90
74901;DHT22;63461;51.416;6.758;2023-03-20T13:42:58;11.60;99.90
74901;DHT22;63461;51.416;6.758;2023-03-20T13:47:53;11.70;99.90
74901;DHT22;63461;51.416;6.758;2023-03-20T13:50:24;11.70;99.90
74901;DHT22;63461;51.416;6.758;2023-03-20T13:53:21;11.60;99.90
74901;DHT22;63461;51.416;6.758;2023-03-20T13:55:59;11.50;99.90
74901;DHT22;63461;51.416;6.758;2023-03-20T14:01:34;11.70;99.90
74901;DHT22;63461;51.416;6.758;2023-03-20T14:04:03;11.50;99.90
74901;DHT22;63461;51.416;6.758;2023-03-20T14:08:55;11.60;99.90
74901;DHT22;63461;51.416;6.758;2023-03-20T14:13:50;11.60;99.90
74901;DHT22;63461;51.416;6.758;2023-03-20T14:16:18;11.60;99.90
74901;DHT22;63461;51.416;6.758;2023-03-20T14:18:47;11.70;99.90
74901;DHT22;63461;51.416;6.758;2023-03-20T14:21:18;11.50;99.90
74901;DHT22;63461;51.416;6.758;2023-03-20T14:23:59;11.70;99.90
74901;DHT22;63461;51.416;6.758;2023-03-20T14:26:29;11.60;99.90
74901;DHT22;63461;51.416;6.758;2023-03-20T14:29:39;11.50;99.90
74901;DHT22;63461;51.416;6.758;2023-03-20T14:35:02;11.60;99.90
74901;DHT22;63461;51.416;6.758;2023-03-20T14:40:32;11.80;99.90
74901;DHT22;63461;51.416;6.758;2023-03-20T14:43:03;11.60;99.90
74901;DHT22;63461;51.416;6.758;2023-03-20T14:48:28;11.70;99.90
74901;DHT22;63461;51.416;6.758;2023-03-20T14:51:20;11.70;99.90
74901;DHT22;63461;51.416;6.758;2023-03-20T14:54:21;11.60;99.90
74901;DHT22;63461;51.416;6.758;2023-03-20T14:56:43;11.60;99.90
74901;DHT22;63461;51.416;6.758;2023-03-20T14:59:10;11.60;99.90
74901;DHT22;63461;51.416;6.758;2023-03-20T15:04:08;11.60;99.90
74901;DHT22;63461;51.416;6.758;2023-03-20T15:06:44;11.60;99.90
74901;DHT22;63461;51.416;6.758;2023-03-20T15:09:14;11.70;99.90
74901;DHT22;63461;51.416;6.758;2023-03-20T15:11:41;11.50;99.90
74901;DHT22;63461;51.416;6.758;2023-03-20T15:14:08;11.60;99.90
74901;DHT22;63461;51.416;6.758;2023-03-20T15:16:36;11.60;99.90
74901;DHT22;63461;51.416;6.758;2023-03-20T15:19:16;11.50;99.90
74901;DHT22;63461;51.416;6.758;2023-03-20T15:21:44;11.40;99.90
74901;DHT22;63461;51.416;6.758;2023-03-20T15:24:22;11.40;99.90
74901;DHT22;63461;51.416;6.758;2023-03-20T15:26:53;11.50;99.90
74901;DHT22;63461;51.416;6.758;2023-03-20T15:29:21;11.50;99.90
74901;DHT22;63461;51.416;6.758;2023-03-20T15:31:54;11.40;99.90
74901;DHT22;63461;51.416;6.758;2023-03-20T15:34:26;11.40;99.90
74901;DHT22;63461;51.416;6.758;2023-03-20T15:36:56;11.30;99.90
74901;DHT22;63461;51.416;6.758;2023-03-20T15:39:25;11.20;99.90
74901;DHT22;63461;51.416;6.758;2023-03-20T15:41:58;11.20;99.90
74901;DHT22;63461;51.416;6.758;2023-03-20T15:44:34;11.10;99.90
74901;DHT22;63461;51.416;6.758;2023-03-20T15:47:03;11.00;99.90
74901;DHT22;63461;51.416;6.758;2023-03-20T15:49:32;11.10;99.90
74901;DHT22;63461;51.416;6.758;2023-03-20T15:52:02;11.10;99.90
74901;DHT22;63461;51.416;6.758;2023-03-20T15:54:29;11.00;99.90
74901;DHT22;63461;51.416;6.758;2023-03-20T15:56:57;11.00;99.90
74901;DHT22;63461;51.416;6.758;2023-03-20T15:59:27;11.00;99.90
74901;DHT22;63461;51.416;6.758;2023-03-20T16:01:56;11.10;99.90
74901;DHT22;63461;51.416;6.758;2023-03-20T16:04:24;11.20;99.90
74901;DHT22;63461;51.416;6.758;2023-03-20T16:06:54;11.20;99.90
74901;DHT22;63461;51.416;6.758;2023-03-20T16:09:21;11.10;99.90
74901;DHT22;63461;51.416;6.758;2023-03-20T16:14:32;10.90;99.90
74901;DHT22;63461;51.416;6.758;2023-03-20T16:17:00;10.90;99.90
74901;DHT22;63461;51.416;6.758;2023-03-20T16:19:27;10.70;99.90
74901;DHT22;63461;51.416;6.758;2023-03-20T16:21:57;10.70;99.90
74901;DHT22;63461;51.416;6.758;2023-03-20T16:24:30;10.70;99.90
74901;DHT22;63461;51.416;6.758;2023-03-20T16:26:59;10.80;99.90
74901;DHT22;63461;51.416;6.758;2023-03-20T16:29:26;10.80;99.90
74901;DHT22;63461;51.416;6.758;2023-03-20T16:32:00;10.70;99.90
74901;DHT22;63461;51.416;6.758;2023-03-20T16:34:34;10.60;99.90
74901;DHT22;63461;51.416;6.758;2023-03-20T16:37:05;10.60;99.90
74901;DHT22;63461;51.416;6.758;2023-03-20T16:39:31;10.70;99.90
74901;DHT22;63461;51.416;6.758;2023-03-20T16:42:24;10.80;99.90
74901;DHT22;63461;51.416;6.758;2023-03-20T16:44:54;10.90;99.90
74901;DHT22;63461;51.416;6.758;2023-03-20T16:47:23;10.90;99.90
74901;DHT22;63461;51.416;6.758;2023-03-20T16:50:17;10.90;99.90
74901;DHT22;63461;51.416;6.758;2023-03-20T16:52:55;10.80;99.90
74901;DHT22;63461;51.416;6.758;2023-03-20T16:55:28;10.80;99.90
74901;DHT22;63461;51.416;6.758;2023-03-20T16:57:58;10.80;99.90
74901;DHT22;63461;51.416;6.758;2023-03-20T17:01:00;10.70;99.90
74901;DHT22;63461;51.416;6.758;2023-03-20T17:03:29;10.80;99.90
74901;DHT22;63461;51.416;6.758;2023-03-20T17:06:05;10.80;99.90
74901;DHT22;63461;51.416;6.758;2023-03-20T17:08:41;10.90;99.90
74901;DHT22;63461;51.416;6.758;2023-03-20T17:11:12;10.80;99.90
74901;DHT22;63461;51.416;6.758;2023-03-20T17:13:39;10.80;99.90
74901;DHT22;63461;51.416;6.758;2023-03-20T17:18:36;10.80;99.90
74901;DHT22;63461;51.416;6.758;2023-03-20T17:21:02;10.80;99.90
74901;DHT22;63461;51.416;6.758;2023-03-20T17:23:29;10.70;99.90
74901;DHT22;63461;51.416;6.758;2023-03-20T17:25:55;10.70;99.90
74901;DHT22;63461;51.416;6.758;2023-03-20T17:28:33;10.80;99.90
74901;DHT22;63461;51.416;6.758;2023-03-20T17:30:59;10.90;99.90
74901;DHT22;63461;51.416;6.758;2023-03-20T17:33:30;10.90;99.90
74901;DHT22;63461;51.416;6.758;2023-03-20T17:35:59;10.80;99.90
74901;DHT22;63461;51.416;6.758;2023-03-20T17:38:25;10.70;99.90
74901;DHT22;63461;51.416;6.758;2023-03-20T17:40:51;10.80;99.90
74901;DHT22;63461;51.416;6.758;2023-03-20T17:43:19;10.70;99.90
74901;DHT22;63461;51.416;6.758;2023-03-20T17:45:45;10.70;99.90
74901;DHT22;63461;51.416;6.758;2023-03-20T17:48:14;10.70;99.90
74901;DHT22;63461;51.416;6.758;2023-03-20T17:50:42;10.70;99.90
74901;DHT22;63461;51.416;6.758;2023-03-20T17:53:28;10.70;99.90
74901;DHT22;63461;51.416;6.758;2023-03-20T17:55:55;10.70;99.90
74901;DHT22;63461;51.416;6.758;2023-03-20T17:58:22;10.60;99.90
74901;DHT22;63461;51.416;6.758;2023-03-20T18:00:52;10.60;99.90
74901;DHT22;63461;51.416;6.758;2023-03-20T18:03:19;10.60;99.90
74901;DHT22;63461;51.416;6.758;2023-03-20T18:05:47;10.60;99.90
74901;DHT22;63461;51.416;6.758;2023-03-20T18:08:16;10.70;99.90
74901;DHT22;63461;51.416;6.758;2023-03-20T18:10:45;10.70;99.90
74901;DHT22;63461;51.416;6.758;2023-03-20T18:13:14;10.70;99.90
74901;DHT22;63461;51.416;6.758;2023-03-20T18:15:59;10.60;99.90